createdAt,value
2022-07-29T00:01:44.009Z,57.34
2022-07-29T00:04:14.104Z,57.44
2022-07-29T00:06:44.157Z,57.27
2022-07-29T00:09:12.651Z,57.27
2022-07-29T00:11:42.025Z,57.45
2022-07-29T00:14:10.536Z,57.53
2022-07-29T00:16:41.515Z,57.42
2022-07-29T00:19:10.087Z,57.69
2022-07-29T00:21:39.730Z,57.92
2022-07-29T00:24:08.487Z,57.95
2022-07-29T00:26:37.054Z,58.02
2022-07-29T00:29:33.065Z,58.26
2022-07-29T00:31:56.605Z,58.24
2022-07-29T00:34:35.107Z,58.15
2022-07-29T00:37:03.935Z,58.39
2022-07-29T00:39:32.767Z,58.60
2022-07-29T00:42:01.238Z,58.52
2022-07-29T00:44:29.964Z,58.75
2022-07-29T00:46:59.856Z,58.74
2022-07-29T00:49:28.445Z,58.91
2022-07-29T00:51:56.906Z,59.27
2022-07-29T00:54:25.355Z,59.47
2022-07-29T00:56:53.756Z,59.36
2022-07-29T00:59:22.579Z,59.66
2022-07-29T01:01:51.092Z,59.77
2022-07-29T01:04:21.144Z,59.79
2022-07-29T01:06:49.851Z,59.86
2022-07-29T01:09:18.445Z,60.03
2022-07-29T01:12:05.967Z,60.18
2022-07-29T01:14:37.861Z,60.42
2022-07-29T01:17:10.267Z,60.68
2022-07-29T01:19:49.815Z,60.54
2022-07-29T01:22:29.126Z,60.86
2022-07-29T01:25:12.569Z,61.03
2022-07-29T01:27:44.527Z,60.78
2022-07-29T01:30:16.198Z,61.16
2022-07-29T01:32:50.249Z,61.19
2022-07-29T01:35:22.036Z,61.44
2022-07-29T01:37:53.359Z,60.89
2022-07-29T01:40:23.418Z,60.66
2022-07-29T01:42:54.362Z,60.36
2022-07-29T01:45:28.341Z,60.33
2022-07-29T01:48:07.528Z,60.20
2022-07-29T01:50:37.678Z,60.29
2022-07-29T01:53:07.289Z,60.34
2022-07-29T01:55:39.182Z,60.06
2022-07-29T01:58:09.329Z,60.38
2022-07-29T02:00:40.113Z,60.39
2022-07-29T02:03:13.729Z,60.32
2022-07-29T02:05:43.980Z,60.35
2022-07-29T02:08:13.712Z,60.21
2022-07-29T02:10:43.439Z,60.26
2022-07-29T02:13:13.782Z,60.54
2022-07-29T02:15:44.361Z,60.29
2022-07-29T02:18:15.841Z,60.26
2022-07-29T02:20:47.160Z,60.17
2022-07-29T02:23:17.078Z,60.08
2022-07-29T02:25:45.830Z,60.18
2022-07-29T02:28:15.451Z,60.47
2022-07-29T02:30:45.871Z,60.39
2022-07-29T02:33:15.759Z,60.36
2022-07-29T02:35:46.066Z,60.33
2022-07-29T02:38:25.803Z,60.37
2022-07-29T02:40:56.006Z,60.54
2022-07-29T02:43:25.001Z,60.44
2022-07-29T02:45:56.131Z,60.46
2022-07-29T02:48:30.383Z,60.43
2022-07-29T02:51:04.025Z,60.59
2022-07-29T02:53:35.607Z,60.67
2022-07-29T02:56:06.775Z,60.72
2022-07-29T02:58:37.011Z,61.19
2022-07-29T03:01:10.691Z,61.08
2022-07-29T03:03:40.503Z,61.10
2022-07-29T03:06:09.806Z,60.92
2022-07-29T03:09:00.445Z,61.40
2022-07-29T03:11:44.300Z,61.11
2022-07-29T03:14:18.561Z,61.22
2022-07-29T03:16:49.245Z,61.21
2022-07-29T03:19:19.066Z,61.27
2022-07-29T03:21:47.584Z,61.19
2022-07-29T03:24:28.325Z,61.14
2022-07-29T03:26:57.302Z,61.50
2022-07-29T03:29:33.109Z,61.49
2022-07-29T03:32:08.352Z,61.46
2022-07-29T03:34:38.726Z,61.62
2022-07-29T03:37:08.376Z,61.78
2022-07-29T03:39:41.901Z,61.63
2022-07-29T03:42:12.847Z,61.58
2022-07-29T03:44:43.554Z,61.58
2022-07-29T03:47:16.129Z,61.71
2022-07-29T03:49:44.762Z,61.76
2022-07-29T03:52:13.224Z,61.98
2022-07-29T03:54:43.115Z,61.83
2022-07-29T03:57:13.185Z,61.88
2022-07-29T03:59:42.594Z,61.75
2022-07-29T04:02:14.663Z,61.52
2022-07-29T04:04:45.702Z,61.61
2022-07-29T04:07:14.566Z,61.53
2022-07-29T04:09:43.425Z,61.59
2022-07-29T04:12:12.215Z,61.53
2022-07-29T04:14:40.886Z,61.23
2022-07-29T04:17:09.346Z,61.21
2022-07-29T04:19:38.170Z,61.50
2022-07-29T04:22:08.382Z,61.35
2022-07-29T04:24:37.017Z,61.41
2022-07-29T04:27:05.705Z,61.27
2022-07-29T04:29:34.525Z,61.14
2022-07-29T04:32:02.924Z,61.21
2022-07-29T04:34:31.944Z,60.84
2022-07-29T04:37:00.946Z,60.74
2022-07-29T04:39:30.903Z,60.39
2022-07-29T04:41:59.494Z,60.73
2022-07-29T04:44:29.404Z,60.70
2022-07-29T04:46:58.653Z,60.75
2022-07-29T04:49:27.247Z,60.64
2022-07-29T04:51:56.206Z,60.30
2022-07-29T04:54:25.659Z,60.22
2022-07-29T04:56:57.264Z,59.86
2022-07-29T04:59:26.592Z,59.52
2022-07-29T05:01:55.153Z,59.18
2022-07-29T05:04:24.280Z,58.80
2022-07-29T05:06:52.762Z,58.63
2022-07-29T05:09:21.546Z,58.39
2022-07-29T05:11:50.121Z,58.28
2022-07-29T05:14:20.835Z,58.13
2022-07-29T05:16:52.252Z,58.07
2022-07-29T05:19:20.750Z,57.70
2022-07-29T05:21:49.534Z,57.44
2022-07-29T05:24:19.396Z,57.04
2022-07-29T05:26:48.683Z,57.00
2022-07-29T05:29:43.361Z,56.64
2022-07-29T05:32:08.114Z,56.23
2022-07-29T05:34:37.364Z,55.88
2022-07-29T05:37:19.145Z,55.43
2022-07-29T05:39:50.650Z,55.36
2022-07-29T05:42:26.846Z,54.83
2022-07-29T05:44:56.581Z,54.38
2022-07-29T05:47:27.032Z,54.30
2022-07-29T05:49:55.641Z,54.09
2022-07-29T05:52:24.153Z,53.80
2022-07-29T05:54:52.919Z,53.45
2022-07-29T05:57:22.847Z,53.18
2022-07-29T05:59:52.141Z,52.98
2022-07-29T06:02:20.781Z,53.07
2022-07-29T06:04:51.867Z,52.81
2022-07-29T06:07:20.352Z,52.24
2022-07-29T06:09:48.825Z,52.22
2022-07-29T06:12:17.222Z,51.93
2022-07-29T06:14:45.590Z,51.35
2022-07-29T06:17:14.043Z,51.37
2022-07-29T06:19:43.114Z,51.18
2022-07-29T06:22:13.873Z,51.00
2022-07-29T06:24:45.205Z,50.84
2022-07-29T06:27:13.913Z,50.68
2022-07-29T06:29:42.923Z,50.28
2022-07-29T06:32:11.513Z,50.15
2022-07-29T06:34:40.153Z,49.93
2022-07-29T06:37:15.715Z,49.43
2022-07-29T06:39:44.555Z,49.45
2022-07-29T06:42:12.922Z,49.17
2022-07-29T06:44:43.061Z,48.58
2022-07-29T06:47:11.442Z,48.65
2022-07-29T06:49:39.995Z,48.16
2022-07-29T06:52:08.403Z,48.20
2022-07-29T06:54:40.083Z,48.39
2022-07-29T06:57:08.582Z,48.18
2022-07-29T06:59:36.984Z,48.45
2022-07-29T07:02:05.472Z,48.31
2022-07-29T07:04:34.602Z,48.06
2022-07-29T07:07:03.976Z,47.64
2022-07-29T07:09:40.532Z,47.60
2022-07-29T07:12:11.393Z,46.89
2022-07-29T07:14:41.037Z,46.37
2022-07-29T07:17:09.768Z,46.46
2022-07-29T07:19:38.402Z,46.04
2022-07-29T07:22:06.856Z,45.70
2022-07-29T07:24:35.361Z,45.76
2022-07-29T07:27:04.226Z,45.15
2022-07-29T07:29:34.466Z,45.17
2022-07-29T07:32:03.168Z,44.56
2022-07-29T07:34:32.536Z,44.24
2022-07-29T07:37:00.964Z,44.23
2022-07-29T07:39:29.454Z,44.17
2022-07-29T07:41:57.873Z,43.67
2022-07-29T07:44:26.665Z,43.41
2022-07-29T07:46:56.526Z,43.33
2022-07-29T07:49:28.835Z,42.66
2022-07-29T07:51:57.522Z,42.68
2022-07-29T07:54:26.806Z,42.31
2022-07-29T07:56:58.243Z,43.08
2022-07-29T07:59:26.725Z,42.48
2022-07-29T08:01:56.919Z,42.12
2022-07-29T08:04:28.730Z,41.41
2022-07-29T08:06:58.393Z,40.93
2022-07-29T08:09:30.174Z,41.13
2022-07-29T08:12:00.648Z,40.89
2022-07-29T08:14:29.142Z,40.61
2022-07-29T08:17:00.161Z,40.41
2022-07-29T08:19:29.495Z,39.86
2022-07-29T08:21:57.983Z,40.10
2022-07-29T08:24:36.394Z,40.16
2022-07-29T08:27:12.923Z,39.97
2022-07-29T08:29:53.554Z,39.56
2022-07-29T08:32:50.958Z,39.72
2022-07-29T08:35:12.013Z,39.56
2022-07-29T08:37:40.471Z,39.27
2022-07-29T08:40:09.291Z,39.64
2022-07-29T08:42:38.246Z,39.33
2022-07-29T08:45:07.506Z,38.81
2022-07-29T08:47:40.978Z,38.39
2022-07-29T08:50:09.934Z,38.19
2022-07-29T08:52:39.519Z,38.38
2022-07-29T08:55:08.710Z,38.06
2022-07-29T08:57:37.687Z,37.81
2022-07-29T09:00:11.463Z,37.18
2022-07-29T09:02:47.863Z,37.41
2022-07-29T09:05:22.590Z,37.89
2022-07-29T09:07:51.282Z,36.67
2022-07-29T09:10:19.714Z,36.47
2022-07-29T09:12:48.412Z,36.70
2022-07-29T09:15:16.783Z,36.01
2022-07-29T09:17:48.345Z,35.86
2022-07-29T09:20:18.298Z,35.59
2022-07-29T09:22:50.257Z,35.39
2022-07-29T09:25:34.919Z,35.13
2022-07-29T09:28:10.210Z,34.90
2022-07-29T09:30:39.597Z,34.71
2022-07-29T09:33:09.647Z,34.59
2022-07-29T09:35:37.999Z,34.47
2022-07-29T09:38:13.364Z,34.53
2022-07-29T09:40:42.308Z,33.92
2022-07-29T09:43:14.387Z,34.15
2022-07-29T09:45:43.446Z,34.18
2022-07-29T09:48:20.335Z,34.35
2022-07-29T09:50:50.787Z,34.54
2022-07-29T09:53:31.157Z,35.05
2022-07-29T09:55:59.744Z,35.11
2022-07-29T09:58:28.362Z,34.39
2022-07-29T10:00:58.943Z,34.83
2022-07-29T10:03:29.107Z,34.67
2022-07-29T10:06:07.905Z,34.42
2022-07-29T10:08:36.869Z,34.51
2022-07-29T10:11:13.577Z,33.72
2022-07-29T10:13:43.404Z,33.80
2022-07-29T10:16:12.197Z,33.52
2022-07-29T10:18:45.945Z,33.04
2022-07-29T10:21:34.791Z,33.29
2022-07-29T10:24:03.565Z,32.72
2022-07-29T10:26:32.670Z,31.97
2022-07-29T10:29:01.066Z,31.53
2022-07-29T10:31:32.169Z,31.96
2022-07-29T10:34:07.615Z,32.14
2022-07-29T10:36:43.698Z,32.43
2022-07-29T10:39:22.236Z,32.14
2022-07-29T10:42:02.052Z,31.66
2022-07-29T10:44:32.738Z,31.05
2022-07-29T10:47:01.777Z,31.57
2022-07-29T10:49:31.925Z,31.91
2022-07-29T10:52:05.788Z,31.45
2022-07-29T10:54:43.756Z,31.15
2022-07-29T10:57:25.979Z,30.92
2022-07-29T11:00:22.497Z,30.48
2022-07-29T11:02:54.482Z,30.98
2022-07-29T11:05:32.028Z,31.19
2022-07-29T11:08:20.076Z,32.21
2022-07-29T11:10:49.970Z,32.67
2022-07-29T11:13:29.178Z,32.67
2022-07-29T11:16:06.961Z,33.38
2022-07-29T11:18:37.111Z,33.43
2022-07-29T11:21:07.947Z,33.46
2022-07-29T11:23:39.859Z,33.51
2022-07-29T11:29:19.138Z,33.47
2022-07-29T11:31:49.714Z,32.77
2022-07-29T11:34:18.821Z,32.77
2022-07-29T11:37:00.080Z,33.28
2022-07-29T11:39:36.623Z,33.14
2022-07-29T11:42:32.094Z,32.60
2022-07-29T11:45:08.433Z,32.55
2022-07-29T11:47:53.698Z,32.14
2022-07-29T11:50:37.000Z,32.12
2022-07-29T11:53:12.482Z,31.77
2022-07-29T11:55:50.966Z,31.02
2022-07-29T11:58:25.020Z,31.60
2022-07-29T12:00:55.716Z,31.49
2022-07-29T12:06:17.983Z,31.44
2022-07-29T12:08:47.515Z,31.47
2022-07-29T12:11:23.531Z,31.37
2022-07-29T12:13:53.121Z,31.15
2022-07-29T12:16:25.584Z,31.49
2022-07-29T12:18:59.616Z,31.82
2022-07-29T12:21:28.911Z,31.59
2022-07-29T12:24:04.797Z,31.39
2022-07-29T12:26:40.551Z,31.32
2022-07-29T12:29:15.442Z,31.33
2022-07-29T12:31:49.036Z,30.86
2022-07-29T12:34:17.998Z,30.33
